createdAt,value
2023-03-26T00:02:07.251Z,7.52
2023-03-26T00:04:37.212Z,7.46
2023-03-26T00:07:05.545Z,7.53
2023-03-26T00:09:33.921Z,7.24
2023-03-26T00:12:02.226Z,7.45
2023-03-26T00:14:30.718Z,7.57
2023-03-26T00:16:59.282Z,7.79
2023-03-26T00:19:28.109Z,7.93
2023-03-26T00:21:58.206Z,7.52
2023-03-26T00:24:29.705Z,7.39
2023-03-26T00:26:59.889Z,7.47
2023-03-26T00:29:33.474Z,7.37
2023-03-26T00:32:01.881Z,7.45
2023-03-26T00:34:30.999Z,7.16
2023-03-26T00:37:03.411Z,6.95
2023-03-26T00:39:35.743Z,7.02
2023-03-26T00:42:07.222Z,7.14
2023-03-26T00:44:35.477Z,7.00
2023-03-26T00:47:03.749Z,7.09
2023-03-26T00:49:32.283Z,7.15
2023-03-26T00:52:03.346Z,7.02
2023-03-26T00:54:31.714Z,7.00
2023-03-26T00:57:07.134Z,6.97
2023-03-26T00:59:35.951Z,7.12
2023-03-26T01:02:04.632Z,6.89
2023-03-26T01:04:35.359Z,7.07
2023-03-26T01:07:11.669Z,6.78
2023-03-26T01:09:45.925Z,6.96
2023-03-26T01:12:17.268Z,6.95
2023-03-26T01:14:46.829Z,6.97
2023-03-26T01:17:15.593Z,6.96
2023-03-26T01:19:50.385Z,6.73
2023-03-26T01:22:22.895Z,6.63
2023-03-26T01:24:56.979Z,7.05
2023-03-26T01:27:33.764Z,6.87
2023-03-26T01:30:10.920Z,6.78
2023-03-26T01:32:49.814Z,6.46
2023-03-26T01:35:30.421Z,6.43
2023-03-26T01:38:14.840Z,6.35
2023-03-26T01:40:49.782Z,6.54
2023-03-26T01:43:25.717Z,6.72
2023-03-26T01:45:55.671Z,6.39
2023-03-26T01:48:32.070Z,6.31
2023-03-26T01:51:00.562Z,6.38
2023-03-26T01:53:29.133Z,6.27
2023-03-26T01:56:11.124Z,6.18
2023-03-26T01:58:47.424Z,6.58
2023-03-26T02:01:27.517Z,6.59
2023-03-26T02:04:04.203Z,6.43
2023-03-26T02:06:37.838Z,6.53
2023-03-26T02:09:09.250Z,6.41
2023-03-26T02:11:41.218Z,6.73
2023-03-26T02:14:13.589Z,6.73
2023-03-26T02:16:46.583Z,6.60
2023-03-26T02:19:21.940Z,6.53
2023-03-26T02:21:51.668Z,6.63
2023-03-26T02:24:20.426Z,6.32
2023-03-26T02:26:52.859Z,6.89
2023-03-26T02:29:21.446Z,6.96
2023-03-26T02:31:50.271Z,6.78
2023-03-26T02:34:18.653Z,6.44
2023-03-26T02:36:47.266Z,6.37
2023-03-26T02:39:15.470Z,6.09
2023-03-26T02:41:43.782Z,6.07
2023-03-26T02:44:13.444Z,6.37
2023-03-26T02:46:41.662Z,6.50
2023-03-26T02:49:10.070Z,6.40
2023-03-26T02:51:38.934Z,6.78
2023-03-26T02:54:08.095Z,6.17
2023-03-26T02:56:39.725Z,6.28
2023-03-26T02:59:07.958Z,6.09
2023-03-26T03:01:43.098Z,5.89
2023-03-26T03:04:12.095Z,6.23
2023-03-26T03:06:41.288Z,5.83
2023-03-26T03:09:10.092Z,6.13
2023-03-26T03:11:39.347Z,6.04
2023-03-26T03:14:08.382Z,6.12
2023-03-26T03:16:38.687Z,6.14
2023-03-26T03:19:07.342Z,6.23
2023-03-26T03:21:35.758Z,6.19
2023-03-26T03:24:04.022Z,5.90
2023-03-26T03:26:32.409Z,5.90
2023-03-26T03:29:01.152Z,5.77
2023-03-26T03:31:29.627Z,5.74
2023-03-26T03:33:59.806Z,5.44
2023-03-26T03:36:30.573Z,5.75
2023-03-26T03:39:02.950Z,6.09
2023-03-26T03:41:34.153Z,5.86
2023-03-26T03:44:02.422Z,6.09
2023-03-26T03:46:32.082Z,6.17
2023-03-26T03:49:04.628Z,6.14
2023-03-26T03:51:32.841Z,6.07
2023-03-26T03:54:00.960Z,5.82
2023-03-26T03:56:30.877Z,5.63
2023-03-26T03:58:59.889Z,5.57
2023-03-26T04:01:32.133Z,5.92
2023-03-26T04:04:01.912Z,5.80
2023-03-26T04:06:30.344Z,5.91
2023-03-26T04:08:58.892Z,5.88
2023-03-26T04:11:27.165Z,6.06
2023-03-26T04:13:55.624Z,6.02
2023-03-26T04:16:24.179Z,5.68
2023-03-26T04:18:52.556Z,5.87
2023-03-26T04:21:26.744Z,5.61
2023-03-26T04:23:55.359Z,5.53
2023-03-26T04:26:24.231Z,5.69
2023-03-26T04:28:55.890Z,5.37
2023-03-26T04:31:29.672Z,5.52
2023-03-26T04:34:02.003Z,5.79
2023-03-26T04:36:34.395Z,5.78
2023-03-26T04:39:05.606Z,5.76
2023-03-26T04:41:33.939Z,5.42
2023-03-26T04:44:02.642Z,5.85
2023-03-26T04:46:33.917Z,5.65
2023-03-26T04:49:02.787Z,5.56
2023-03-26T04:51:39.658Z,5.49
2023-03-26T04:54:08.152Z,5.55
2023-03-26T04:56:43.556Z,5.64
2023-03-26T04:59:15.636Z,5.73
2023-03-26T05:01:46.091Z,5.46
2023-03-26T05:04:14.957Z,5.38
2023-03-26T05:06:44.980Z,5.20
2023-03-26T05:09:13.361Z,5.04
2023-03-26T05:11:42.004Z,5.09
2023-03-26T05:14:10.614Z,5.18
2023-03-26T05:16:39.892Z,5.07
2023-03-26T05:19:08.707Z,5.12
2023-03-26T05:21:37.700Z,5.44
2023-03-26T05:24:08.545Z,5.31
2023-03-26T05:26:37.733Z,5.34
2023-03-26T05:29:06.530Z,5.35
2023-03-26T05:31:34.715Z,5.08
2023-03-26T05:34:03.410Z,5.26
2023-03-26T05:36:31.824Z,5.56
2023-03-26T05:39:00.206Z,5.65
2023-03-26T05:41:30.408Z,5.28
2023-03-26T05:43:58.937Z,5.22
2023-03-26T05:46:27.528Z,5.43
2023-03-26T05:48:56.139Z,5.15
2023-03-26T05:51:24.621Z,4.84
2023-03-26T05:53:53.273Z,4.82
2023-03-26T05:56:21.581Z,5.21
2023-03-26T05:58:52.128Z,5.10
2023-03-26T06:01:20.921Z,5.37
2023-03-26T06:03:50.660Z,5.24
2023-03-26T06:06:20.855Z,5.26
2023-03-26T06:09:01.956Z,5.26
2023-03-26T06:11:31.623Z,5.18
2023-03-26T06:14:01.396Z,5.27
2023-03-26T06:16:29.575Z,5.47
2023-03-26T06:18:58.578Z,5.29
2023-03-26T06:21:28.260Z,5.36
2023-03-26T06:23:56.859Z,5.34
2023-03-26T06:26:24.946Z,5.52
2023-03-26T06:28:53.436Z,5.29
2023-03-26T06:31:23.123Z,5.52
2023-03-26T06:33:54.782Z,5.46
2023-03-26T06:36:22.934Z,5.53
2023-03-26T06:38:51.066Z,5.56
2023-03-26T06:41:19.599Z,5.19
2023-03-26T06:43:47.817Z,5.39
2023-03-26T06:46:16.231Z,5.27
2023-03-26T06:48:46.130Z,5.32
2023-03-26T06:51:14.264Z,5.37
2023-03-26T06:53:42.867Z,5.23
2023-03-26T06:56:11.801Z,5.19
2023-03-26T06:58:39.992Z,5.15
2023-03-26T07:01:08.632Z,5.08
2023-03-26T07:03:37.107Z,5.09
2023-03-26T07:06:07.286Z,5.08
2023-03-26T07:08:35.537Z,4.89
2023-03-26T07:11:06.551Z,5.07
2023-03-26T07:13:35.176Z,4.95
2023-03-26T07:16:06.590Z,4.96
2023-03-26T07:18:34.916Z,5.10
2023-03-26T07:21:03.816Z,5.26
2023-03-26T07:23:34.562Z,5.29
2023-03-26T07:26:19.998Z,5.26
2023-03-26T07:29:05.346Z,5.21
2023-03-26T07:31:42.555Z,4.86
2023-03-26T07:34:27.921Z,5.01
2023-03-26T07:37:02.505Z,5.27
2023-03-26T07:39:44.586Z,5.35
2023-03-26T07:42:24.830Z,5.26
2023-03-26T07:45:00.027Z,5.16
2023-03-26T07:47:31.699Z,5.29
2023-03-26T07:50:00.862Z,5.38
2023-03-26T07:52:30.090Z,5.31
2023-03-26T07:55:04.011Z,5.03
2023-03-26T07:57:41.064Z,4.87
2023-03-26T08:00:18.277Z,4.83
2023-03-26T08:03:10.132Z,4.91
2023-03-26T08:05:44.757Z,4.98
2023-03-26T08:08:20.818Z,4.98
2023-03-26T08:11:05.158Z,5.48
2023-03-26T08:13:41.718Z,5.57
2023-03-26T08:16:16.202Z,5.68
2023-03-26T08:18:54.370Z,5.32
2023-03-26T08:21:31.963Z,5.49
2023-03-26T08:24:05.833Z,5.22
2023-03-26T08:26:46.094Z,5.34
2023-03-26T08:29:22.682Z,4.91
2023-03-26T08:31:52.047Z,5.07
2023-03-26T08:34:20.455Z,5.23
2023-03-26T08:36:48.929Z,5.19
2023-03-26T08:39:17.708Z,5.19
2023-03-26T08:42:21.341Z,5.07
2023-03-26T08:45:27.362Z,5.10
2023-03-26T08:48:26.805Z,5.05
2023-03-26T08:51:48.082Z,4.86
2023-03-26T08:54:42.716Z,5.15
2023-03-26T08:57:48.310Z,4.92
2023-03-26T09:00:51.171Z,5.07
2023-03-26T09:03:41.572Z,5.31
2023-03-26T09:06:28.817Z,5.65
2023-03-26T09:09:26.024Z,5.42
2023-03-26T09:12:19.052Z,5.34
2023-03-26T09:15:27.319Z,5.48
2023-03-26T09:18:30.057Z,5.51
2023-03-26T09:21:30.043Z,5.65
2023-03-26T09:24:32.690Z,5.41
2023-03-26T09:27:16.602Z,5.39
2023-03-26T09:30:26.964Z,5.39
2023-03-26T09:33:33.382Z,5.36
2023-03-26T09:39:13.539Z,5.85
2023-03-26T09:41:45.681Z,5.85
2023-03-26T09:44:57.909Z,5.96
2023-03-26T09:48:01.269Z,5.92
2023-03-26T09:50:58.962Z,5.88
2023-03-26T09:53:52.126Z,5.87
2023-03-26T09:56:31.416Z,5.92
2023-03-26T09:59:28.056Z,5.95
2023-03-26T10:02:11.903Z,5.88
2023-03-26T10:05:06.915Z,5.68
2023-03-26T10:07:58.845Z,5.85
2023-03-26T10:10:37.157Z,6.05
2023-03-26T10:13:23.194Z,5.89
2023-03-26T10:16:07.649Z,6.16
2023-03-26T10:18:51.475Z,5.93
2023-03-26T10:21:29.660Z,5.95
2023-03-26T10:24:11.800Z,5.81
2023-03-26T10:27:09.329Z,5.87
2023-03-26T10:30:30.635Z,5.84
2023-03-26T10:33:09.252Z,5.96
2023-03-26T10:35:55.021Z,5.92
2023-03-26T10:38:31.334Z,5.95
2023-03-26T10:41:12.587Z,5.86
2023-03-26T10:44:22.019Z,5.47
2023-03-26T10:47:08.771Z,5.57
2023-03-26T10:50:07.859Z,5.66
2023-03-26T10:52:47.280Z,5.38
2023-03-26T10:55:20.257Z,5.40
2023-03-26T10:57:54.918Z,5.60
2023-03-26T11:00:29.433Z,5.72
2023-03-26T11:03:19.768Z,5.63
2023-03-26T11:06:09.079Z,5.61
2023-03-26T11:08:48.733Z,5.60
2023-03-26T11:11:28.905Z,5.71
2023-03-26T11:14:10.513Z,5.75
2023-03-26T11:16:58.807Z,5.73
2023-03-26T11:19:38.000Z,5.65
2023-03-26T11:22:18.324Z,5.71
2023-03-26T11:25:28.635Z,5.70
2023-03-26T11:28:11.726Z,5.57
2023-03-26T11:30:48.563Z,5.68
2023-03-26T11:33:22.058Z,5.64
2023-03-26T11:35:57.236Z,5.60
2023-03-26T11:38:37.619Z,5.71
2023-03-26T11:41:16.358Z,5.48
2023-03-26T11:43:56.493Z,5.75
2023-03-26T11:46:29.115Z,5.88
2023-03-26T11:49:01.220Z,5.79
2023-03-26T11:51:34.325Z,5.88
2023-03-26T11:54:03.310Z,5.65
2023-03-26T11:56:35.102Z,5.63
2023-03-26T11:59:06.458Z,5.69
2023-03-26T12:01:50.654Z,5.83
2023-03-26T12:04:22.154Z,5.80
2023-03-26T12:06:58.048Z,5.62
2023-03-26T12:09:27.184Z,5.45
2023-03-26T12:12:02.191Z,5.32
2023-03-26T12:14:33.824Z,5.50
2023-03-26T12:17:05.985Z,5.47
2023-03-26T12:19:41.030Z,5.57
2023-03-26T12:22:31.309Z,5.47
2023-03-26T12:25:05.554Z,5.56
2023-03-26T12:27:34.572Z,5.50
2023-03-26T12:30:15.116Z,5.43
2023-03-26T12:32:46.627Z,5.40
2023-03-26T12:35:28.218Z,5.27
2023-03-26T12:38:16.820Z,5.06
2023-03-26T12:40:45.372Z,5.12
2023-03-26T12:44:50.126Z,5.35
2023-03-26T12:47:57.876Z,5.42
2023-03-26T12:49:21.960Z,5.28
2023-03-26T12:51:53.191Z,5.19
2023-03-26T12:54:37.500Z,5.24
2023-03-26T12:57:21.416Z,5.22
2023-03-26T13:00:15.240Z,5.22
2023-03-26T13:03:16.570Z,5.34
2023-03-26T13:06:19.320Z,5.28
2023-03-26T13:09:29.283Z,5.05
2023-03-26T13:12:09.499Z,5.08
2023-03-26T13:15:04.285Z,4.78
2023-03-26T13:17:39.647Z,4.91
2023-03-26T13:20:16.237Z,4.73
2023-03-26T13:22:56.678Z,4.94
2023-03-26T13:25:37.227Z,4.98
2023-03-26T13:28:18.137Z,5.03
2023-03-26T13:30:54.040Z,4.99
2023-03-26T13:33:31.236Z,4.80
2023-03-26T13:36:21.713Z,4.91
2023-03-26T13:39:05.086Z,4.90
2023-03-26T13:41:48.056Z,5.07
2023-03-26T13:44:27.427Z,5.04
2023-03-26T13:47:02.164Z,4.94
2023-03-26T13:49:37.475Z,5.06
2023-03-26T13:52:14.403Z,4.90
2023-03-26T13:54:48.834Z,4.89
2023-03-26T13:57:26.294Z,4.86
2023-03-26T13:59:59.875Z,4.70
2023-03-26T14:02:36.686Z,4.70
2023-03-26T14:05:12.573Z,4.88
2023-03-26T14:07:47.260Z,4.78
2023-03-26T14:10:21.332Z,5.08
2023-03-26T14:12:59.549Z,4.94
2023-03-26T14:15:33.108Z,4.96
2023-03-26T14:18:08.636Z,4.90
2023-03-26T14:21:13.015Z,4.82
2023-03-26T14:23:59.965Z,4.88
2023-03-26T14:26:48.396Z,5.08
2023-03-26T14:29:56.814Z,4.87
2023-03-26T14:32:46.739Z,4.87
2023-03-26T14:35:38.066Z,4.85
2023-03-26T14:38:33.858Z,4.80
2023-03-26T14:41:19.533Z,4.86
2023-03-26T14:44:26.704Z,4.77
2023-03-26T14:47:26.744Z,4.82
2023-03-26T14:50:37.445Z,4.86
2023-03-26T14:53:20.302Z,4.94
2023-03-26T14:56:15.736Z,4.93
2023-03-26T14:59:12.717Z,4.78
2023-03-26T15:02:08.167Z,4.87
2023-03-26T15:05:14.345Z,4.71
2023-03-26T15:08:38.062Z,4.75
2023-03-26T15:11:21.754Z,4.82
2023-03-26T15:14:35.250Z,4.61
2023-03-26T15:17:36.817Z,4.82
2023-03-26T15:20:44.025Z,4.68
2023-03-26T15:23:50.984Z,4.54
2023-03-26T15:27:03.889Z,4.61
2023-03-26T15:30:13.750Z,4.58
2023-03-26T15:33:26.833Z,4.55
2023-03-26T15:36:37.210Z,4.71
2023-03-26T15:39:33.388Z,4.84
2023-03-26T15:42:12.788Z,4.81
2023-03-26T15:44:54.794Z,4.66
2023-03-26T15:47:52.543Z,4.85
2023-03-26T15:50:41.265Z,4.59
2023-03-26T15:53:29.738Z,4.52
2023-03-26T15:56:11.780Z,4.58
2023-03-26T15:58:50.154Z,4.54
2023-03-26T16:01:35.087Z,4.73
2023-03-26T16:04:14.511Z,4.69
2023-03-26T16:06:52.306Z,4.58
2023-03-26T16:09:47.501Z,4.74
2023-03-26T16:12:37.662Z,4.86
2023-03-26T16:15:24.345Z,4.86
2023-03-26T16:18:29.175Z,4.77
2023-03-26T16:21:31.131Z,5.04
2023-03-26T16:24:20.397Z,4.81
2023-03-26T16:27:01.768Z,4.61
2023-03-26T16:29:32.240Z,4.73
2023-03-26T16:34:53.063Z,4.77
2023-03-26T16:37:50.713Z,4.93
2023-03-26T16:40:36.435Z,5.04
2023-03-26T16:43:21.443Z,5.04
2023-03-26T16:45:59.647Z,4.92
2023-03-26T16:48:38.333Z,4.97
2023-03-26T16:51:14.976Z,4.98
2023-03-26T16:53:52.238Z,5.03
2023-03-26T16:56:31.269Z,5.01
2023-03-26T16:59:07.926Z,4.95
2023-03-26T17:01:47.912Z,5.24
2023-03-26T17:04:21.690Z,5.20
2023-03-26T17:07:02.156Z,5.16
2023-03-26T17:09:39.502Z,4.95
2023-03-26T17:12:21.247Z,5.14
2023-03-26T17:15:04.435Z,5.04
2023-03-26T17:17:52.654Z,4.87
2023-03-26T17:20:37.778Z,5.02
2023-03-26T17:23:19.296Z,5.10
2023-03-26T17:26:01.059Z,4.94
2023-03-26T17:28:44.036Z,4.90
2023-03-26T17:31:23.870Z,5.07
2023-03-26T17:33:55.939Z,4.95
2023-03-26T17:36:42.905Z,4.99
2023-03-26T17:39:43.641Z,4.76
2023-03-26T17:42:28.119Z,4.73
2023-03-26T17:45:00.468Z,4.88
2023-03-26T17:47:34.605Z,4.91
2023-03-26T17:50:13.024Z,4.90
2023-03-26T17:52:57.975Z,5.03
2023-03-26T17:55:31.150Z,4.95
2023-03-26T17:58:01.789Z,4.87
2023-03-26T18:00:37.147Z,4.93
2023-03-26T18:03:12.994Z,4.80
2023-03-26T18:05:43.349Z,4.81
2023-03-26T18:08:35.447Z,4.84
2023-03-26T18:11:29.540Z,4.62
2023-03-26T18:14:37.444Z,4.91
2023-03-26T18:17:06.534Z,4.85
2023-03-26T18:19:52.347Z,4.79
2023-03-26T18:22:26.831Z,4.76
2023-03-26T18:25:00.426Z,4.76
2023-03-26T18:27:36.967Z,4.46
2023-03-26T18:30:16.606Z,4.70
2023-03-26T18:32:52.509Z,4.69
2023-03-26T18:35:23.485Z,4.91
2023-03-26T18:37:55.959Z,5.04
2023-03-26T18:40:25.970Z,4.92
2023-03-26T18:42:56.989Z,4.73
2023-03-26T18:45:29.068Z,4.58
2023-03-26T18:47:59.863Z,4.73
2023-03-26T18:50:32.106Z,4.76
2023-03-26T18:53:01.907Z,4.67
2023-03-26T18:55:30.842Z,4.62
2023-03-26T18:57:59.218Z,4.63
2023-03-26T19:00:30.409Z,4.67
2023-03-26T19:03:06.058Z,4.77
2023-03-26T19:05:36.117Z,4.39
2023-03-26T19:08:08.406Z,4.64
2023-03-26T19:10:38.104Z,4.73
2023-03-26T19:13:06.386Z,4.60
2023-03-26T19:15:37.099Z,4.65
2023-03-26T19:18:10.010Z,4.67
2023-03-26T19:20:42.646Z,4.59
2023-03-26T19:23:16.565Z,4.59
2023-03-26T19:25:48.937Z,4.76
2023-03-26T19:28:21.496Z,4.60
2023-03-26T19:30:57.166Z,4.48
2023-03-26T19:33:33.740Z,4.54
2023-03-26T19:36:05.392Z,4.49
2023-03-26T19:38:45.555Z,4.57
2023-03-26T19:41:23.452Z,4.55
2023-03-26T19:43:53.073Z,4.54
2023-03-26T19:46:25.667Z,4.55
2023-03-26T19:48:55.747Z,4.55
2023-03-26T19:51:26.792Z,4.35
2023-03-26T19:53:59.001Z,4.33
2023-03-26T19:56:29.100Z,4.28
2023-03-26T19:58:59.564Z,4.04
2023-03-26T20:01:30.207Z,3.93
2023-03-26T20:04:02.254Z,4.08
2023-03-26T20:06:42.657Z,3.94
2023-03-26T20:09:14.312Z,3.90
2023-03-26T20:11:42.885Z,3.98
2023-03-26T20:14:15.779Z,4.24
2023-03-26T20:16:45.655Z,4.03
2023-03-26T20:19:15.048Z,4.03
2023-03-26T20:21:44.914Z,4.06
2023-03-26T20:24:16.458Z,4.20
2023-03-26T20:26:44.935Z,4.22
2023-03-26T20:29:14.227Z,4.21
2023-03-26T20:31:43.083Z,4.18
2023-03-26T20:34:17.142Z,4.19
2023-03-26T20:36:46.647Z,4.38
2023-03-26T20:39:16.460Z,4.36
2023-03-26T20:41:47.839Z,4.33
2023-03-26T20:44:19.142Z,4.46
2023-03-26T20:46:48.883Z,4.36
2023-03-26T20:49:18.130Z,4.40
2023-03-26T20:51:47.015Z,4.34
2023-03-26T20:54:19.650Z,4.43
2023-03-26T20:56:50.058Z,4.25
2023-03-26T20:59:22.669Z,4.46
2023-03-26T21:01:52.291Z,4.24
2023-03-26T21:04:21.703Z,4.22
2023-03-26T21:06:50.872Z,4.32
2023-03-26T21:09:24.335Z,4.51
2023-03-26T21:12:03.426Z,4.57
2023-03-26T21:14:39.144Z,4.49
2023-03-26T21:17:08.560Z,4.36
2023-03-26T21:19:37.234Z,4.29
2023-03-26T21:22:15.016Z,4.28
2023-03-26T21:25:06.588Z,4.20
2023-03-26T21:27:45.308Z,4.07
2023-03-26T21:30:16.398Z,4.16
2023-03-26T21:32:46.605Z,4.20
2023-03-26T21:35:16.477Z,4.25
2023-03-26T21:37:46.393Z,4.39
2023-03-26T21:40:18.498Z,4.23
2023-03-26T21:42:49.122Z,4.20
2023-03-26T21:45:18.554Z,4.10
2023-03-26T21:47:48.021Z,4.17
2023-03-26T21:50:18.671Z,4.07
2023-03-26T21:52:51.153Z,4.18
2023-03-26T21:55:22.952Z,4.10
2023-03-26T21:58:06.090Z,3.89
2023-03-26T22:00:43.693Z,3.99
2023-03-26T22:03:19.704Z,4.03
2023-03-26T22:05:58.346Z,4.01
2023-03-26T22:08:30.845Z,4.09
2023-03-26T22:11:00.286Z,4.14
2023-03-26T22:13:28.649Z,4.14
2023-03-26T22:15:59.720Z,3.98
2023-03-26T22:18:30.353Z,3.96
2023-03-26T22:21:01.857Z,3.99
2023-03-26T22:23:34.379Z,3.88
2023-03-26T22:26:04.711Z,3.85
2023-03-26T22:28:33.051Z,3.89
2023-03-26T22:31:07.654Z,3.84
2023-03-26T22:33:36.185Z,3.87
2023-03-26T22:36:04.401Z,3.82
2023-03-26T22:38:32.894Z,3.84
2023-03-26T22:41:01.203Z,3.78
2023-03-26T22:43:30.873Z,3.91
2023-03-26T22:45:59.052Z,3.80
2023-03-26T22:48:27.570Z,3.71
2023-03-26T22:51:00.199Z,3.64
2023-03-26T22:53:29.084Z,3.58
2023-03-26T22:55:57.166Z,3.73
2023-03-26T22:58:26.059Z,3.63
2023-03-26T23:01:03.210Z,3.80
2023-03-26T23:03:35.468Z,3.71
2023-03-26T23:06:06.718Z,3.74
2023-03-26T23:08:36.531Z,3.75
2023-03-26T23:11:10.215Z,3.71
2023-03-26T23:13:38.800Z,3.78
2023-03-26T23:16:10.376Z,3.75
2023-03-26T23:18:39.190Z,3.60
2023-03-26T23:21:11.987Z,3.61
2023-03-26T23:23:40.892Z,3.64
2023-03-26T23:26:09.296Z,3.63
2023-03-26T23:28:38.354Z,3.69
2023-03-26T23:31:10.347Z,3.60
2023-03-26T23:33:46.724Z,3.56
2023-03-26T23:36:17.971Z,3.66
2023-03-26T23:38:47.876Z,3.70
2023-03-26T23:41:17.042Z,3.55
2023-03-26T23:43:54.789Z,3.50
2023-03-26T23:46:30.997Z,3.60
2023-03-26T23:49:02.650Z,3.62
2023-03-26T23:51:31.560Z,3.64
2023-03-26T23:54:00.473Z,3.55
2023-03-26T23:56:29.389Z,3.47
2023-03-26T23:59:00.688Z,3.57
